Hauptseite
METAR-TAF:

METAR-TAF

Flughäfen :

Aigen im Ennstal, Österreich

Breite: 47-32N, Länge: 014-08E, Höhe: 638 m

METAR: fehlend

Zeit: 03:04 (01:04 UTC)

Prognose

Neuester Wetterbericht von vor 13 Stunden und 49 Minuten, um 11:15 UTC
Gültige Prognose vom 18 um 12 UTC bis 18 um 21 UTC
Wind 3 kt aus unterschiedlichen Richtungen
Sichtweite 10 km oder mehr
Leicht bewölkt in der Höhe von 6000 ft
Zeitweise
vom 18 um 12 UTC bis 18 um 17 UTC
Wind 6 kt aus Nordost
Leicht bewölkt in der Höhe von 6000 ft
Aufgelockert bewölkt in der Höhe von 7000 ft

TAF: LOXA 181115Z 1812/1821 VRB03KT 9999 FEW060 TEMPO 1812/1817 04006KT FEW060 SCT070

Wetterbeobachtungen und Prognosen von mehr als 4000 Flughäfen (METAR und TAF Bericht).

Die verfügbaren Stationen werden durch gelbe und rote Markierungen auf der Karte dargestellt.

Führen Sie die Maus auf sie, um den Namen der Station zu sehen.

Darauf klicken, um die Beobachtung von Wetterbeobachtungen und Prognosen zu sehen.

Um die Karte zu ändern : klicken Sie auf den grünen Tasten mit einem schwarzen Kreuz Zum Vergrößern, auf den grünen Button mit einem Gedankenstrich zu verkleinern, oder auf die grünen Pfeile für benachbarte Karten.


METAR-TAF: